Time;durP1;ratioP1;P1;durP2;ratioP2;P2;SDS_P1;SDS_P2;PMS_P1;PMS_P2;Temp;Humidity;BMP_temperature;BMP_pressure;BME280_temperature;BME280_humidity;BME280_pressure;Samples;Min_cycle;Max_cycle;Signal;HPM_P1;HPM_P2
2021/01/04 00:00:52;;;;;;;6.68;3.90;;;3.80;99.90;;;;;;5078907;28;20376;-66
2021/01/04 00:03:38;;;;;;;7.75;3.90;;;3.80;99.90;;;;;;5076991;28;20048;-67
2021/01/04 00:06:17;;;;;;;7.78;3.88;;;3.80;99.90;;;;;;5100521;28;20056;-66
2021/01/04 00:08:43;;;;;;;8.82;4.38;;;3.80;99.90;;;;;;5101698;27;20465;-66
2021/01/04 00:11:43;;;;;;;8.18;4.72;;;3.80;99.90;;;;;;5086135;28;20070;-67
2021/01/04 00:14:31;;;;;;;7.22;3.92;;;3.80;99.90;;;;;;5092874;28;20054;-66
2021/01/04 00:17:25;;;;;;;6.30;3.78;;;3.80;99.90;;;;;;5073196;28;20052;-67
2021/01/04 00:20:27;;;;;;;7.40;3.60;;;3.80;99.90;;;;;;5077114;28;20052;-67
2021/01/04 00:23:00;;;;;;;7.72;3.70;;;3.80;99.90;;;;;;5057587;28;20055;-66
2021/01/04 00:25:29;;;;;;;6.70;3.80;;;3.70;99.90;;;;;;5078538;28;20437;-66
2021/01/04 00:28:16;;;;;;;7.45;3.95;;;3.70;99.90;;;;;;5078393;28;20055;-66
2021/01/04 00:30:49;;;;;;;6.93;4.00;;;3.70;99.90;;;;;;5080467;28;20097;-66
2021/01/04 00:33:25;;;;;;;7.40;3.47;;;3.80;99.90;;;;;;5081823;28;20093;-67
2021/01/04 00:35:55;;;;;;;6.43;3.10;;;3.80;99.90;;;;;;5078431;28;20541;-66
2021/01/04 00:38:35;;;;;;;7.00;3.70;;;3.80;99.90;;;;;;5104195;27;20232;-67
2021/01/04 00:41:17;;;;;;;6.15;3.53;;;3.80;99.90;;;;;;5073846;28;20080;-66
2021/01/04 00:43:48;;;;;;;5.72;3.35;;;3.80;99.90;;;;;;5079146;28;20132;-67
2021/01/04 00:46:19;;;;;;;6.82;3.85;;;3.80;99.90;;;;;;5085482;28;20503;-66
2021/01/04 00:49:15;;;;;;;6.00;3.90;;;3.80;99.90;;;;;;5083372;28;20071;-67
2021/01/04 00:52:03;;;;;;;7.13;3.42;;;3.80;99.90;;;;;;5068574;28;20056;-66
2021/01/04 00:54:46;;;;;;;5.80;3.33;;;3.80;99.90;;;;;;5075934;28;20177;-67
2021/01/04 00:57:50;;;;;;;5.18;3.33;;;3.80;99.90;;;;;;5074459;28;20803;-67
2021/01/04 01:00:33;;;;;;;7.90;3.40;;;3.80;99.90;;;;;;5073054;28;20138;-66
2021/01/04 01:03:30;;;;;;;6.32;3.75;;;3.80;99.90;;;;;;5114585;27;20044;-67
2021/01/04 01:06:25;;;;;;;6.13;3.25;;;3.80;99.90;;;;;;5081300;28;20051;-67
2021/01/04 01:08:54;;;;;;;6.28;3.40;;;3.80;99.90;;;;;;5080585;28;20044;-66
2021/01/04 01:11:27;;;;;;;6.50;3.45;;;3.80;99.90;;;;;;5082981;28;20052;-66
2021/01/04 01:14:00;;;;;;;5.60;3.78;;;3.80;99.90;;;;;;5103463;28;20122;-66
2021/01/04 01:17:01;;;;;;;6.55;3.58;;;3.80;99.90;;;;;;5081474;28;20093;-67
2021/01/04 01:19:43;;;;;;;6.85;3.83;;;3.80;99.90;;;;;;5115580;27;20371;-66
2021/01/04 01:22:15;;;;;;;7.55;4.15;;;3.80;99.90;;;;;;5086639;28;20047;-66
2021/01/04 01:24:43;;;;;;;5.70;3.33;;;3.80;99.90;;;;;;5063380;28;20113;-67
2021/01/04 01:27:36;;;;;;;5.05;3.33;;;3.80;99.90;;;;;;5075649;28;20060;-66
2021/01/04 01:30:08;;;;;;;6.38;3.58;;;3.80;99.90;;;;;;5076438;28;20549;-66
2021/01/04 01:32:41;;;;;;;7.13;3.70;;;3.80;99.90;;;;;;5082775;28;20051;-67
2021/01/04 01:35:20;;;;;;;6.13;3.53;;;3.80;99.90;;;;;;5116582;27;20056;-67
2021/01/04 01:38:02;;;;;;;6.35;3.50;;;3.80;99.90;;;;;;5072044;28;20098;-66
2021/01/04 01:41:07;;;;;;;6.03;3.63;;;3.80;99.90;;;;;;5093823;28;20052;-66
2021/01/04 01:43:55;;;;;;;6.63;3.78;;;3.80;99.90;;;;;;5023819;28;20067;-67
2021/01/04 01:46:39;;;;;;;6.50;4.05;;;3.80;99.90;;;;;;5096202;28;20476;-67
2021/01/04 01:49:30;;;;;;;7.28;4.15;;;3.80;99.90;;;;;;5080336;28;20056;-65
2021/01/04 01:52:16;;;;;;;6.75;4.28;;;3.80;99.90;;;;;;5093005;28;20047;-66
2021/01/04 01:55:10;;;;;;;7.28;4.40;;;3.70;99.90;;;;;;5079717;28;20445;-65
2021/01/04 01:58:00;;;;;;;9.30;4.65;;;3.70;99.90;;;;;;5093227;28;20054;-67
2021/01/04 02:00:27;;;;;;;7.63;4.57;;;3.70;99.90;;;;;;5116984;27;20055;-66
2021/01/04 02:03:17;;;;;;;7.72;4.25;;;3.70;99.90;;;;;;5081536;28;20075;-66
2021/01/04 02:06:14;;;;;;;6.50;4.43;;;3.70;99.90;;;;;;5081996;28;20106;-66
2021/01/04 02:09:06;;;;;;;8.05;5.10;;;3.70;99.90;;;;;;5091311;28;20054;-68
2021/01/04 02:11:48;;;;;;;6.18;3.88;;;3.70;99.90;;;;;;5089429;28;20060;-66
2021/01/04 02:14:25;;;;;;;7.38;4.10;;;3.70;99.90;;;;;;5073680;28;20059;-66
2021/01/04 02:17:22;;;;;;;6.13;4.07;;;3.70;99.90;;;;;;5102385;28;20433;-66
2021/01/04 02:20:08;;;;;;;6.30;4.20;;;3.70;99.90;;;;;;5082879;28;20055;-66
2021/01/04 02:22:40;;;;;;;6.57;4.65;;;3.70;99.90;;;;;;5081371;28;20055;-66
2021/01/04 02:25:07;;;;;;;7.65;4.40;;;3.70;99.90;;;;;;5085792;28;20112;-66
2021/01/04 02:27:39;;;;;;;6.93;4.45;;;3.60;99.90;;;;;;5089051;28;20152;-66
2021/01/04 02:30:06;;;;;;;5.97;3.90;;;3.60;99.90;;;;;;5083417;28;20452;-66
2021/01/04 02:32:33;;;;;;;6.72;4.57;;;3.60;99.90;;;;;;5096559;28;20095;-66
2021/01/04 02:34:59;;;;;;;6.07;4.13;;;3.60;99.90;;;;;;5065048;28;20059;-66
2021/01/04 02:37:27;;;;;;;6.95;4.65;;;3.60;99.90;;;;;;5068244;28;20131;-67
2021/01/04 02:39:59;;;;;;;6.75;4.20;;;3.60;99.90;;;;;;5061465;28;20048;-66
2021/01/04 02:42:53;;;;;;;8.15;5.07;;;3.60;99.90;;;;;;5065107;28;20052;-66
2021/01/04 02:45:29;;;;;;;5.95;4.10;;;3.60;99.90;;;;;;5051267;28;20045;-66
2021/01/04 02:48:05;;;;;;;7.22;4.90;;;3.60;99.90;;;;;;5070038;28;20079;-66
2021/01/04 02:50:41;;;;;;;8.13;4.60;;;3.60;99.90;;;;;;5088184;28;20040;-66
2021/01/04 02:53:39;;;;;;;8.38;5.10;;;3.60;99.90;;;;;;5084600;28;20052;-66
2021/01/04 02:56:42;;;;;;;5.63;4.00;;;3.60;99.90;;;;;;5053398;28;20403;-66
2021/01/04 02:59:30;;;;;;;6.43;4.03;;;3.60;99.90;;;;;;5026065;28;20496;-65
2021/01/04 03:02:09;;;;;;;6.18;4.05;;;3.60;99.90;;;;;;5068956;28;20054;-66
2021/01/04 03:04:37;;;;;;;6.95;4.15;;;3.60;99.90;;;;;;5077282;28;20529;-66
2021/01/04 03:07:27;;;;;;;5.90;3.92;;;3.60;99.90;;;;;;5068708;28;20105;-66
2021/01/04 03:09:56;;;;;;;6.35;3.63;;;3.60;99.90;;;;;;5058968;28;20043;-66
2021/01/04 03:12:31;;;;;;;7.45;4.10;;;3.60;99.90;;;;;;5065604;28;20075;-66
2021/01/04 03:15:27;;;;;;;6.93;4.00;;;3.60;99.90;;;;;;5059872;28;20044;-66
2021/01/04 03:18:13;;;;;;;7.68;3.88;;;3.60;99.90;;;;;;5059619;28;20098;-66
2021/01/04 03:20:40;;;;;;;6.55;3.88;;;3.60;99.90;;;;;;5065314;28;20093;-66
2021/01/04 03:23:07;;;;;;;6.85;4.22;;;3.60;99.90;;;;;;5065622;28;20401;-66
2021/01/04 03:25:55;;;;;;;6.85;3.97;;;3.60;99.90;;;;;;5077358;28;20094;-66
2021/01/04 03:28:28;;;;;;;5.50;3.65;;;3.60;99.90;;;;;;5058025;28;20091;-66
2021/01/04 03:30:55;;;;;;;7.03;4.15;;;3.60;99.90;;;;;;5063763;28;20052;-66
2021/01/04 03:33:23;;;;;;;6.65;4.20;;;3.60;99.90;;;;;;5063855;28;20130;-66
2021/01/04 03:35:50;;;;;;;7.72;4.10;;;3.60;99.90;;;;;;5066036;28;20121;-66
2021/01/04 03:38:17;;;;;;;6.13;3.42;;;3.60;99.90;;;;;;5048038;28;20036;-66
2021/01/04 03:40:44;;;;;;;5.53;3.80;;;3.60;99.90;;;;;;5054811;28;20048;-66
2021/01/04 03:43:10;;;;;;;6.43;3.70;;;3.50;99.90;;;;;;5054488;28;20423;-66
2021/01/04 03:45:37;;;;;;;5.50;4.00;;;3.50;99.90;;;;;;5063304;28;20045;-66
2021/01/04 03:48:05;;;;;;;5.85;3.95;;;3.50;99.90;;;;;;5054197;28;20480;-65
2021/01/04 03:50:31;;;;;;;6.00;3.88;;;3.50;99.90;;;;;;5053278;28;20053;-65
2021/01/04 03:52:58;;;;;;;5.38;3.63;;;3.60;99.90;;;;;;5053583;28;20048;-66
2021/01/04 03:55:25;;;;;;;6.95;4.07;;;3.60;99.90;;;;;;5052189;28;20059;-66
2021/01/04 03:57:52;;;;;;;5.75;3.60;;;3.60;99.90;;;;;;5062096;28;20499;-66
2021/01/04 04:00:19;;;;;;;6.32;3.83;;;3.60;99.90;;;;;;5056288;28;20098;-66
2021/01/04 04:02:48;;;;;;;6.80;4.18;;;3.60;99.90;;;;;;5057522;28;20102;-66
2021/01/04 04:05:17;;;;;;;7.78;4.20;;;3.60;99.90;;;;;;5052038;28;20056;-66
2021/01/04 04:07:45;;;;;;;5.88;4.35;;;3.60;99.90;;;;;;5053705;28;20105;-66
2021/01/04 04:10:13;;;;;;;7.38;5.05;;;3.60;99.90;;;;;;5054309;28;20052;-66
2021/01/04 04:12:41;;;;;;;6.30;4.07;;;3.60;99.90;;;;;;5056641;28;20095;-66
2021/01/04 04:15:11;;;;;;;6.55;4.75;;;3.60;99.90;;;;;;5056205;28;20153;-66
2021/01/04 04:17:38;;;;;;;6.80;4.53;;;3.60;99.90;;;;;;5058377;28;20082;-66
2021/01/04 04:20:10;;;;;;;7.50;4.85;;;3.60;99.90;;;;;;5056023;28;20044;-66
2021/01/04 04:22:37;;;;;;;6.47;4.20;;;3.60;99.90;;;;;;5059830;28;20137;-66
2021/01/04 04:25:06;;;;;;;7.05;3.90;;;3.60;99.90;;;;;;5053027;28;20048;-66
2021/01/04 04:27:32;;;;;;;;;;;3.60;99.90;;;;;;5062461;28;20503;-66
2021/01/04 04:29:59;;;;;;;6.90;4.43;;;3.60;99.90;;;;;;5057376;28;19978;-66
2021/01/04 04:32:26;;;;;;;6.88;4.32;;;3.60;99.90;;;;;;5056979;28;20083;-66
2021/01/04 04:34:53;;;;;;;7.13;4.53;;;3.60;99.90;;;;;;5064257;28;20053;-65
2021/01/04 04:37:19;;;;;;;8.18;4.22;;;3.60;99.90;;;;;;5069740;28;20045;-65
2021/01/04 04:39:46;;;;;;;7.57;4.53;;;3.60;99.90;;;;;;5066755;28;20060;-65
2021/01/04 04:42:14;;;;;;;6.35;4.25;;;3.60;99.90;;;;;;5069487;28;20052;-66
2021/01/04 04:44:43;;;;;;;6.53;4.13;;;3.60;99.90;;;;;;5066288;28;20052;-66
2021/01/04 04:47:33;;;;;;;7.50;4.20;;;3.60;99.90;;;;;;5086188;28;20549;-66
2021/01/04 04:50:37;;;;;;;8.27;4.55;;;3.60;99.90;;;;;;5068693;28;20144;-66
2021/01/04 04:53:29;;;;;;;7.43;4.18;;;3.60;99.90;;;;;;5066456;28;20052;-65
2021/01/04 04:56:32;;;;;;;7.30;4.13;;;3.60;99.90;;;;;;5085378;28;20487;-65
2021/01/04 04:59:13;;;;;;;7.18;4.22;;;3.60;99.90;;;;;;5083696;28;20044;-65
2021/01/04 05:02:11;;;;;;;6.72;4.03;;;3.60;99.90;;;;;;5070393;28;20450;-65
2021/01/04 05:04:52;;;;;;;5.80;3.67;;;3.60;99.90;;;;;;5066700;28;20044;-65
2021/01/04 05:07:39;;;;;;;7.18;3.83;;;3.60;99.90;;;;;;5070305;28;20094;-65
2021/01/04 05:10:19;;;;;;;6.00;3.72;;;3.60;99.90;;;;;;5067113;28;20471;-66
2021/01/04 05:13:16;;;;;;;7.43;3.88;;;3.60;99.90;;;;;;5066683;28;20074;-66
2021/01/04 05:16:31;;;;;;;5.55;3.58;;;3.60;99.90;;;;;;5068785;28;20471;-66
2021/01/04 05:19:05;;;;;;;7.47;3.80;;;3.60;99.90;;;;;;4991652;28;20096;-66
2021/01/04 05:21:42;;;;;;;7.78;4.30;;;3.60;99.90;;;;;;5060847;28;20040;-66
2021/01/04 05:24:38;;;;;;;7.63;4.20;;;3.60;99.90;;;;;;5068487;28;20144;-66
2021/01/04 05:27:12;;;;;;;6.68;3.47;;;3.60;99.90;;;;;;5049315;28;20104;-66
2021/01/04 05:29:44;;;;;;;6.85;3.95;;;3.60;99.90;;;;;;5098313;27;20124;-66
2021/01/04 05:32:38;;;;;;;5.40;3.42;;;3.60;99.90;;;;;;5084786;28;20557;-65
2021/01/04 05:35:09;;;;;;;6.82;4.10;;;3.60;99.90;;;;;;5067869;28;20056;-65
2021/01/04 05:37:51;;;;;;;6.10;3.90;;;3.60;99.90;;;;;;5069880;28;20044;-65
2021/01/04 05:40:37;;;;;;;7.15;4.45;;;3.60;99.90;;;;;;5063520;28;20044;-66
2021/01/04 05:43:25;;;;;;;6.22;4.00;;;3.60;99.90;;;;;;5096642;28;20044;-66
2021/01/04 05:45:58;;;;;;;7.00;4.40;;;3.60;99.90;;;;;;5067219;28;20052;-66
2021/01/04 05:49:04;;;;;;;8.93;4.07;;;3.60;99.90;;;;;;5085493;28;20076;-66
2021/01/04 05:51:45;;;;;;;7.20;4.05;;;3.60;99.90;;;;;;5069021;28;20060;-65
2021/01/04 05:54:12;;;;;;;7.22;3.90;;;3.60;99.90;;;;;;5064854;28;20105;-65
2021/01/04 05:56:39;;;;;;;7.28;4.50;;;3.60;99.90;;;;;;5068669;28;20060;-65
2021/01/04 05:59:12;;;;;;;8.40;4.57;;;3.60;99.90;;;;;;5066399;28;20056;-65
2021/01/04 06:01:41;;;;;;;8.00;4.43;;;3.60;99.90;;;;;;5071276;28;20433;-65
2021/01/04 06:04:09;;;;;;;;;;;3.60;99.90;;;;;;5058293;28;20125;-65
2021/01/04 06:06:59;;;;;;;6.55;4.28;;;3.60;99.90;;;;;;5069208;28;19961;-65
2021/01/04 06:09:28;;;;;;;8.10;4.47;;;3.60;99.90;;;;;;5061759;28;20040;-65
2021/01/04 06:12:02;;;;;;;6.10;3.47;;;3.60;99.90;;;;;;5068450;28;20479;-65
2021/01/04 06:14:38;;;;;;;6.95;3.80;;;3.60;99.90;;;;;;5067084;28;20044;-65
2021/01/04 06:17:35;;;;;;;8.00;4.32;;;3.60;99.90;;;;;;5069644;28;20236;-65
2021/01/04 06:20:10;;;;;;;6.90;3.67;;;3.60;99.90;;;;;;5062729;28;20052;-66
2021/01/04 06:22:37;;;;;;;9.75;4.55;;;3.60;99.90;;;;;;5070338;28;20090;-66
2021/01/04 06:25:06;;;;;;;10.32;4.35;;;3.60;99.90;;;;;;5064890;28;20052;-66
2021/01/04 06:27:42;;;;;;;5.35;3.22;;;3.60;99.90;;;;;;5064391;28;20114;-66
2021/01/04 06:30:35;;;;;;;6.65;3.75;;;3.60;99.90;;;;;;5068480;28;20053;-66
2021/01/04 06:33:09;;;;;;;6.28;3.83;;;3.70;99.90;;;;;;5068154;28;20061;-66
2021/01/04 06:35:36;;;;;;;8.30;4.68;;;3.60;99.90;;;;;;5090266;28;20144;-66
2021/01/04 06:38:25;;;;;;;7.93;4.55;;;3.60;99.90;;;;;;5070181;28;20105;-66
2021/01/04 06:40:51;;;;;;;7.50;4.13;;;3.60;99.90;;;;;;5073095;28;20441;-66
2021/01/04 06:43:24;;;;;;;9.18;4.75;;;3.60;99.90;;;;;;5089788;28;20044;-66
2021/01/04 06:46:26;;;;;;;7.78;4.07;;;3.60;99.90;;;;;;5084136;28;20049;-66
2021/01/04 06:49:03;;;;;;;5.40;3.83;;;3.60;99.90;;;;;;5072780;28;20091;-66
2021/01/04 06:52:07;;;;;;;9.45;4.32;;;3.60;99.90;;;;;;5075493;28;20048;-66
2021/01/04 06:55:11;;;;;;;6.38;4.03;;;3.60;99.90;;;;;;5068388;28;20133;-66
2021/01/04 06:58:27;;;;;;;9.07;3.90;;;3.60;99.90;;;;;;5080044;28;20230;-66
2021/01/04 07:01:09;;;;;;;7.53;3.95;;;3.60;99.90;;;;;;5050814;28;20052;-65
2021/01/04 07:03:58;;;;;;;8.38;4.15;;;3.60;99.90;;;;;;5111551;27;20097;-65
2021/01/04 07:06:47;;;;;;;6.95;4.47;;;3.60;99.90;;;;;;5074900;28;20075;-65
2021/01/04 07:09:50;;;;;;;6.60;4.13;;;3.60;99.90;;;;;;5085778;28;20105;-65
2021/01/04 07:12:29;;;;;;;7.30;3.95;;;3.60;99.90;;;;;;4993801;28;20152;-65
2021/01/04 07:15:07;;;;;;;8.43;3.85;;;3.50;99.90;;;;;;5052743;28;20094;-66
2021/01/04 07:17:53;;;;;;;6.85;3.85;;;3.50;99.90;;;;;;5064446;28;20068;-66
2021/01/04 07:20:29;;;;;;;6.45;4.00;;;3.50;99.90;;;;;;5069038;28;20101;-65
2021/01/04 07:23:17;;;;;;;7.88;4.50;;;3.60;99.90;;;;;;5070309;28;20048;-65
2021/01/04 07:26:08;;;;;;;6.32;3.80;;;3.50;99.90;;;;;;5067071;28;20131;-66
2021/01/04 07:29:04;;;;;;;8.60;4.07;;;3.50;99.90;;;;;;5067234;28;20176;-65
2021/01/04 07:32:08;;;;;;;7.40;4.40;;;3.60;99.90;;;;;;5067628;28;23307;-65
2021/01/04 07:34:48;;;;;;;7.07;4.25;;;3.60;99.90;;;;;;5053376;28;20094;-65
2021/01/04 07:37:48;;;;;;;7.63;3.95;;;3.60;99.90;;;;;;5069540;28;20087;-66
2021/01/04 07:40:34;;;;;;;6.35;3.90;;;3.60;99.90;;;;;;5069037;28;20070;-65
2021/01/04 07:43:22;;;;;;;7.97;3.75;;;3.60;99.90;;;;;;5050420;28;20056;-65
2021/01/04 07:46:01;;;;;;;8.00;4.25;;;3.60;99.90;;;;;;5065809;28;20144;-65
2021/01/04 07:49:05;;;;;;;7.30;3.97;;;3.60;99.90;;;;;;5064606;28;20059;-65
2021/01/04 07:51:56;;;;;;;8.35;3.72;;;3.60;99.90;;;;;;5068778;28;20094;-65
2021/01/04 07:54:40;;;;;;;6.95;4.32;;;3.60;99.90;;;;;;5063467;28;20761;-66
2021/01/04 07:57:34;;;;;;;7.13;4.22;;;3.60;99.90;;;;;;5058652;28;20052;-65
2021/01/04 08:00:24;;;;;;;5.55;3.85;;;3.60;99.90;;;;;;5060784;28;20437;-65
2021/01/04 08:03:05;;;;;;;7.53;4.20;;;3.60;99.90;;;;;;5060248;28;20048;-65
2021/01/04 08:05:57;;;;;;;5.32;3.88;;;3.70;99.90;;;;;;5080058;28;20532;-65
2021/01/04 08:08:43;;;;;;;7.78;4.13;;;3.70;99.90;;;;;;5086261;28;20495;-65
2021/01/04 08:11:09;;;;;;;6.72;4.22;;;3.70;99.90;;;;;;5063229;28;21433;-65
2021/01/04 08:13:42;;;;;;;5.82;3.72;;;3.70;99.90;;;;;;5066038;28;20043;-65
2021/01/04 08:16:21;;;;;;;9.55;4.05;;;3.70;99.90;;;;;;5061485;28;20076;-66
2021/01/04 08:18:54;;;;;;;5.53;3.60;;;3.70;99.90;;;;;;5066306;28;20039;-66
2021/01/04 08:21:32;;;;;;;6.80;3.88;;;3.80;99.90;;;;;;5064567;28;20110;-65
2021/01/04 08:24:24;;;;;;;7.32;3.78;;;3.80;99.90;;;;;;5084960;28;20090;-65
2021/01/04 08:27:17;;;;;;;6.53;3.88;;;3.80;99.90;;;;;;5097431;27;20048;-66
2021/01/04 08:30:07;;;;;;;7.20;3.97;;;3.80;99.90;;;;;;5061353;28;20079;-65
2021/01/04 08:32:52;;;;;;;7.53;4.50;;;3.80;99.90;;;;;;5066000;28;20040;-66
2021/01/04 08:35:27;;;;;;;8.07;4.72;;;3.80;99.90;;;;;;5044901;28;20078;-65
2021/01/04 08:37:58;;;;;;;6.85;4.10;;;3.80;99.90;;;;;;5062113;28;20152;-66
2021/01/04 08:40:33;;;;;;;6.95;4.30;;;3.80;99.90;;;;;;5045921;28;20364;-66
2021/01/04 08:43:05;;;;;;;7.13;3.78;;;3.80;99.90;;;;;;5045024;28;20610;-65
2021/01/04 08:45:47;;;;;;;7.05;4.53;;;3.80;99.90;;;;;;5076917;28;20747;-65
2021/01/04 08:48:19;;;;;;;7.40;4.45;;;3.80;99.90;;;;;;5044762;28;20118;-65
2021/01/04 08:51:12;;;;;;;7.03;4.25;;;3.80;99.90;;;;;;5046767;28;20109;-66
2021/01/04 08:53:38;;;;;;;5.85;3.75;;;3.80;99.90;;;;;;5047416;28;20127;-66
2021/01/04 08:56:18;;;;;;;6.10;3.85;;;3.80;99.90;;;;;;5046308;28;20098;-65
2021/01/04 08:58:46;;;;;;;7.95;4.07;;;3.90;99.90;;;;;;5045711;28;20075;-66
2021/01/04 09:01:12;;;;;;;6.47;4.18;;;3.90;99.90;;;;;;5046048;28;20369;-66
2021/01/04 09:03:42;;;;;;;6.05;3.95;;;3.90;99.90;;;;;;5049902;28;20180;-65
2021/01/04 09:06:30;;;;;;;6.07;3.88;;;3.90;99.90;;;;;;5046151;28;20044;-66
2021/01/04 09:09:20;;;;;;;5.85;3.20;;;3.90;99.90;;;;;;5050743;28;20152;-65
2021/01/04 09:12:06;;;;;;;6.32;3.38;;;3.90;99.90;;;;;;5064958;28;20049;-65
2021/01/04 09:14:52;;;;;;;4.93;3.17;;;3.90;99.90;;;;;;5042425;28;20080;-65
2021/01/04 09:17:32;;;;;;;8.38;3.88;;;3.90;99.90;;;;;;5045148;28;20056;-66
2021/01/04 09:20:23;;;;;;;6.63;4.28;;;3.90;99.90;;;;;;5044342;28;20114;-66
2021/01/04 09:23:10;;;;;;;6.47;3.63;;;3.90;99.90;;;;;;5031285;28;20055;-66
2021/01/04 09:26:02;;;;;;;5.80;3.60;;;3.90;99.90;;;;;;5044449;28;20496;-66
2021/01/04 09:29:13;;;;;;;7.30;3.80;;;3.90;99.90;;;;;;5064832;28;20048;-66
2021/01/04 09:32:04;;;;;;;9.57;4.30;;;3.90;99.90;;;;;;5046353;28;20072;-66
2021/01/04 09:34:31;;;;;;;7.38;4.63;;;3.90;99.90;;;;;;5054673;28;20465;-66
2021/01/04 09:37:06;;;;;;;5.68;3.38;;;3.90;99.90;;;;;;5067899;28;20093;-66
2021/01/04 09:39:35;;;;;;;6.28;3.97;;;4.00;99.90;;;;;;5061341;28;20063;-66
2021/01/04 09:42:05;;;;;;;9.10;4.13;;;4.00;99.90;;;;;;5061679;28;20051;-66
2021/01/04 09:44:33;;;;;;;8.38;4.70;;;4.00;99.90;;;;;;5066052;28;20048;-65
2021/01/04 09:47:09;;;;;;;7.03;3.90;;;4.00;99.90;;;;;;5066845;28;20075;-65
2021/01/04 09:49:43;;;;;;;7.32;4.07;;;4.00;99.90;;;;;;5058493;28;20055;-66
2021/01/04 09:52:31;;;;;;;9.93;4.03;;;4.10;99.90;;;;;;5067603;28;20148;-66
2021/01/04 09:55:06;;;;;;;8.15;4.20;;;4.10;99.90;;;;;;5064729;28;20101;-66
2021/01/04 09:57:38;;;;;;;7.40;4.35;;;4.10;99.90;;;;;;5068607;28;20061;-65
2021/01/04 10:00:21;;;;;;;7.53;3.65;;;4.10;99.90;;;;;;5078654;28;20044;-66
2021/01/04 10:02:47;;;;;;;6.55;4.28;;;4.20;99.90;;;;;;5070099;28;20384;-66
2021/01/04 10:05:18;;;;;;;10.15;4.18;;;4.20;99.90;;;;;;5072647;28;20044;-66
2021/01/04 10:07:45;;;;;;;8.10;3.88;;;4.20;99.90;;;;;;5066426;28;20102;-65
2021/01/04 10:10:20;;;;;;;7.38;4.05;;;4.20;99.90;;;;;;5069814;28;20047;-66
2021/01/04 10:12:46;;;;;;;7.10;3.78;;;4.20;99.90;;;;;;5097179;27;20453;-66
2021/01/04 10:15:22;;;;;;;6.18;3.17;;;4.20;99.90;;;;;;5071279;28;20052;-67
2021/01/04 10:18:06;;;;;;;6.07;3.67;;;4.20;99.90;;;;;;5071342;28;20483;-67
2021/01/04 10:20:48;;;;;;;7.10;3.83;;;4.20;99.90;;;;;;5074080;28;20109;-66
2021/01/04 10:23:38;;;;;;;6.97;4.15;;;4.20;99.90;;;;;;5070173;28;20048;-65
2021/01/04 10:26:25;;;;;;;5.93;3.22;;;4.20;99.90;;;;;;5072374;28;20075;-66
2021/01/04 10:28:52;;;;;;;6.43;3.25;;;4.20;99.90;;;;;;5069683;28;20109;-65
2021/01/04 10:31:25;;;;;;;4.85;3.13;;;4.20;99.90;;;;;;5070894;28;20044;-66
2021/01/04 10:34:07;;;;;;;5.93;3.28;;;4.20;99.90;;;;;;5083098;28;20581;-66
2021/01/04 10:36:34;;;;;;;5.22;3.25;;;4.20;99.90;;;;;;5050544;28;20134;-66
2021/01/04 10:39:04;;;;;;;7.43;3.63;;;4.30;99.90;;;;;;5083981;28;20513;-66
2021/01/04 10:41:34;;;;;;;4.82;3.15;;;4.30;99.90;;;;;;5082528;28;20049;-66
2021/01/04 10:44:25;;;;;;;6.10;3.45;;;4.30;99.90;;;;;;5052497;28;20268;-66
2021/01/04 10:47:15;;;;;;;6.25;3.63;;;4.30;99.90;;;;;;5069313;28;20049;-66
2021/01/04 10:49:42;;;;;;;7.03;3.47;;;4.30;99.90;;;;;;5051334;28;20052;-66
2021/01/04 10:52:19;;;;;;;6.00;3.40;;;4.30;99.90;;;;;;5049284;28;20113;-66
2021/01/04 10:54:46;;;;;;;5.38;2.75;;;4.30;99.90;;;;;;5048854;28;20060;-66
2021/01/04 10:57:12;;;;;;;5.45;3.10;;;4.30;99.90;;;;;;5049121;28;20064;-66
2021/01/04 10:59:54;;;;;;;5.53;2.92;;;4.30;99.90;;;;;;5080678;28;20040;-66
2021/01/04 11:02:21;;;;;;;5.03;3.10;;;4.30;99.90;;;;;;5047083;28;20053;-66
2021/01/04 11:04:53;;;;;;;5.25;3.08;;;4.30;99.90;;;;;;5048030;28;20154;-66
2021/01/04 11:07:29;;;;;;;5.60;2.80;;;4.30;99.90;;;;;;5080964;28;20466;-66
2021/01/04 11:09:56;;;;;;;4.85;3.00;;;4.30;99.90;;;;;;5048347;28;20048;-66
2021/01/04 11:12:26;;;;;;;6.07;3.00;;;4.30;99.90;;;;;;5049472;28;20050;-66
2021/01/04 11:15:02;;;;;;;4.90;2.80;;;4.30;99.90;;;;;;5080413;28;20170;-66
2021/01/04 11:17:35;;;;;;;5.40;3.05;;;4.30;99.90;;;;;;5043838;28;20094;-66
2021/01/04 11:20:09;;;;;;;4.43;2.88;;;4.30;99.90;;;;;;5048220;28;20083;-66
2021/01/04 11:22:36;;;;;;;4.68;2.75;;;4.30;99.90;;;;;;5046933;28;20102;-67
2021/01/04 11:25:04;;;;;;;4.18;2.83;;;4.30;99.90;;;;;;5081471;28;20070;-66
2021/01/04 11:27:31;;;;;;;4.95;2.92;;;4.30;99.90;;;;;;5057288;28;20152;-66
2021/01/04 11:29:57;;;;;;;5.10;3.08;;;4.20;99.90;;;;;;5050847;28;20488;-66
2021/01/04 11:32:24;;;;;;;5.30;2.50;;;4.30;99.90;;;;;;5049680;28;20080;-66
2021/01/04 11:34:53;;;;;;;6.10;2.80;;;4.20;99.90;;;;;;5054394;28;20074;-66
2021/01/04 11:37:22;;;;;;;5.03;2.83;;;4.30;99.90;;;;;;5088211;28;20057;-66
2021/01/04 11:39:50;;;;;;;7.97;3.13;;;4.30;99.90;;;;;;5055360;28;20057;-66
2021/01/04 11:42:17;;;;;;;5.03;2.85;;;4.30;99.90;;;;;;5082992;28;20578;-66
2021/01/04 11:44:44;;;;;;;5.70;3.10;;;4.30;99.90;;;;;;5055166;28;20056;-66
2021/01/04 11:47:11;;;;;;;4.70;2.90;;;4.30;99.90;;;;;;5056126;28;20090;-67
2021/01/04 11:49:37;;;;;;;5.03;3.22;;;4.30;99.90;;;;;;5054902;28;20479;-66
2021/01/04 11:52:04;;;;;;;5.45;3.00;;;4.30;99.90;;;;;;5053874;28;20852;-67
2021/01/04 11:54:31;;;;;;;5.07;2.80;;;4.30;99.90;;;;;;5055638;28;20083;-66
2021/01/04 11:56:57;;;;;;;4.95;2.70;;;4.30;99.90;;;;;;5056880;28;20053;-66
2021/01/04 11:59:24;;;;;;;5.20;2.85;;;4.30;99.90;;;;;;5055600;28;20072;-66
2021/01/04 12:01:53;;;;;;;4.78;2.90;;;4.30;99.90;;;;;;5057460;28;20051;-66
2021/01/04 12:04:20;;;;;;;4.72;2.78;;;4.30;99.90;;;;;;5057015;28;20056;-66
2021/01/04 12:06:48;;;;;;;7.03;3.25;;;4.30;99.90;;;;;;5055822;28;20503;-66
2021/01/04 12:09:15;;;;;;;4.22;2.67;;;4.30;99.90;;;;;;5057810;28;20126;-66
2021/01/04 12:11:42;;;;;;;5.88;2.95;;;4.30;99.90;;;;;;5087171;28;20072;-65
2021/01/04 12:14:10;;;;;;;5.70;2.72;;;4.30;99.90;;;;;;5055014;28;20057;-66
2021/01/04 12:16:37;;;;;;;4.93;2.88;;;4.30;99.90;;;;;;5052579;28;20720;-66
2021/01/04 12:19:05;;;;;;;4.70;2.40;;;4.30;99.90;;;;;;5052481;28;20048;-67
2021/01/04 12:21:32;;;;;;;4.90;2.63;;;4.30;99.90;;;;;;5052168;28;20141;-66
2021/01/04 12:23:58;;;;;;;5.40;2.78;;;4.30;99.90;;;;;;5089170;28;20090;-66
2021/01/04 12:26:25;;;;;;;4.57;2.42;;;4.20;99.90;;;;;;5054458;28;20049;-65
2021/01/04 12:28:53;;;;;;;6.13;2.70;;;4.20;99.90;;;;;;5055012;28;20135;-65
2021/01/04 12:31:20;;;;;;;5.53;2.70;;;4.20;99.90;;;;;;5054807;28;20049;-65
2021/01/04 12:33:48;;;;;;;4.50;2.80;;;4.20;99.90;;;;;;5053857;28;20130;-65
2021/01/04 12:36:24;;;;;;;4.43;2.40;;;4.20;99.90;;;;;;5048562;28;20419;-65
2021/01/04 12:38:51;;;;;;;5.43;2.72;;;4.10;99.90;;;;;;5047996;28;20474;-66
2021/01/04 12:41:19;;;;;;;3.47;2.10;;;4.10;99.90;;;;;;5046529;28;20048;-66
2021/01/04 12:43:46;;;;;;;4.75;2.53;;;4.20;99.90;;;;;;5047608;28;20487;-65
2021/01/04 12:46:14;;;;;;;5.28;2.10;;;4.20;99.90;;;;;;5047062;28;20056;-65
2021/01/04 12:48:41;;;;;;;3.90;2.40;;;4.20;99.90;;;;;;5044611;28;20088;-66
2021/01/04 12:51:09;;;;;;;3.78;2.05;;;4.20;99.90;;;;;;5047071;28;20053;-66
2021/01/04 12:53:36;;;;;;;4.30;2.55;;;4.20;99.90;;;;;;5062771;28;20103;-65
2021/01/04 12:56:08;;;;;;;3.90;2.53;;;4.20;99.90;;;;;;5049656;28;20072;-65
2021/01/04 12:58:38;;;;;;;3.75;2.10;;;4.20;99.90;;;;;;5047019;28;20448;-66
2021/01/04 13:01:15;;;;;;;3.30;2.17;;;4.20;99.90;;;;;;5048129;28;20059;-66
2021/01/04 13:04:02;;;;;;;3.10;1.95;;;4.10;99.90;;;;;;5051329;28;20122;-66
2021/01/04 13:06:28;;;;;;;4.90;2.20;;;4.10;99.90;;;;;;5045513;28;20078;-64
2021/01/04 13:09:11;;;;;;;5.35;2.20;;;4.10;99.90;;;;;;5051680;28;20052;-65
2021/01/04 13:11:37;;;;;;;4.05;2.20;;;4.00;99.90;;;;;;5048637;28;20052;-65
2021/01/04 13:14:06;;;;;;;3.58;2.30;;;4.00;99.90;;;;;;5048150;28;20106;-65
2021/01/04 13:16:37;;;;;;;3.00;2.00;;;4.00;99.90;;;;;;5048508;28;20118;-64
2021/01/04 13:19:17;;;;;;;3.53;2.20;;;4.00;99.90;;;;;;5052902;28;20045;-65
2021/01/04 13:21:44;;;;;;;3.05;1.98;;;4.00;99.90;;;;;;5051151;28;20060;-65
2021/01/04 13:24:14;;;;;;;3.72;2.40;;;4.00;99.90;;;;;;5049651;28;20047;-66
2021/01/04 13:26:42;;;;;;;4.15;2.47;;;4.00;99.90;;;;;;5047892;28;20173;-65
2021/01/04 13:29:11;;;;;;;3.88;2.38;;;4.00;99.90;;;;;;5045649;28;20454;-65
2021/01/04 13:31:37;;;;;;;4.70;2.80;;;4.00;99.90;;;;;;5049677;28;20052;-65
2021/01/04 13:34:04;;;;;;;3.30;2.08;;;4.00;99.90;;;;;;5056015;28;20052;-66
2021/01/04 13:36:31;;;;;;;4.45;2.55;;;3.90;99.90;;;;;;5062574;28;20080;-65
2021/01/04 13:38:57;;;;;;;4.47;2.30;;;3.90;99.90;;;;;;5068808;28;20496;-65
2021/01/04 13:41:24;;;;;;;3.22;2.15;;;3.90;99.90;;;;;;5066856;28;20040;-66
2021/01/04 13:43:51;;;;;;;4.85;2.63;;;3.90;99.90;;;;;;5067415;28;20040;-65
2021/01/04 13:46:27;;;;;;;4.63;2.85;;;3.90;99.90;;;;;;5063761;28;20048;-65
2021/01/04 13:48:53;;;;;;;3.28;2.38;;;3.90;99.90;;;;;;5067702;28;20052;-65
2021/01/04 13:51:20;;;;;;;3.70;2.20;;;3.90;99.90;;;;;;5057995;28;20134;-66